createdAt,value
2023-04-16T00:01:08.415Z,3.78
2023-04-16T00:03:34.921Z,4.35
2023-04-16T00:06:01.563Z,3.85
2023-04-16T00:08:27.974Z,3.70
2023-04-16T00:10:54.253Z,3.92
2023-04-16T00:13:21.083Z,3.72
2023-04-16T00:15:47.353Z,3.53
2023-04-16T00:18:13.614Z,3.97
2023-04-16T00:20:39.914Z,3.72
2023-04-16T00:23:06.253Z,3.65
2023-04-16T00:25:32.539Z,4.95
2023-04-16T00:27:58.814Z,4.20
2023-04-16T00:30:25.139Z,3.75
2023-04-16T00:32:51.468Z,4.30
2023-04-16T00:35:17.958Z,4.63
2023-04-16T00:37:44.372Z,3.70
2023-04-16T00:40:11.100Z,3.60
2023-04-16T00:42:37.426Z,3.70
2023-04-16T00:45:05.411Z,4.20
2023-04-16T00:47:31.838Z,4.05
2023-04-16T00:49:58.239Z,3.95
2023-04-16T00:52:25.752Z,3.75
2023-04-16T00:54:53.658Z,3.58
2023-04-16T00:57:19.964Z,3.85
2023-04-16T00:59:46.421Z,4.20
2023-04-16T01:02:12.823Z,3.92
2023-04-16T01:04:39.386Z,3.67
2023-04-16T01:07:05.675Z,4.40
2023-04-16T01:09:32.037Z,3.90
2023-04-16T01:11:58.326Z,3.47
2023-04-16T01:14:24.718Z,3.65
2023-04-16T01:16:50.996Z,3.53
2023-04-16T01:19:17.410Z,3.95
2023-04-16T01:21:43.674Z,3.78
2023-04-16T01:24:09.954Z,3.88
2023-04-16T01:26:36.307Z,3.95
2023-04-16T01:29:02.763Z,3.67
2023-04-16T01:31:29.102Z,4.50
2023-04-16T01:33:55.509Z,3.63
2023-04-16T01:36:21.854Z,3.20
2023-04-16T01:38:48.281Z,3.22
2023-04-16T01:41:14.596Z,3.75
2023-04-16T01:43:40.937Z,3.78
2023-04-16T01:46:14.995Z,3.50
2023-04-16T01:48:41.584Z,3.70
2023-04-16T01:51:07.869Z,3.50
2023-04-16T01:53:36.535Z,3.60
2023-04-16T01:56:03.641Z,3.58
2023-04-16T01:58:31.247Z,3.67
2023-04-16T02:03:24.542Z,3.15
2023-04-16T02:05:51.829Z,3.03
2023-04-16T02:08:18.194Z,3.63
2023-04-16T02:10:49.789Z,3.75
2023-04-16T02:13:16.750Z,3.30
2023-04-16T02:15:50.581Z,3.40
2023-04-16T02:18:17.001Z,3.15
2023-04-16T02:20:45.050Z,3.50
2023-04-16T02:23:12.387Z,3.20
2023-04-16T02:25:39.870Z,4.07
2023-04-16T02:28:06.528Z,3.40
2023-04-16T02:30:32.876Z,3.38
2023-04-16T02:32:59.220Z,3.47
2023-04-16T02:35:25.749Z,3.40
2023-04-16T02:37:52.136Z,3.33
2023-04-16T02:40:19.288Z,3.30
2023-04-16T02:42:45.578Z,3.60
2023-04-16T02:45:12.151Z,2.97
2023-04-16T02:47:38.470Z,3.15
2023-04-16T02:50:05.207Z,3.35
2023-04-16T02:52:31.517Z,3.28
2023-04-16T02:54:57.793Z,2.95
2023-04-16T02:57:24.197Z,2.80
2023-04-16T02:59:50.522Z,3.17
2023-04-16T03:02:17.044Z,3.17
2023-04-16T03:04:43.645Z,3.92
2023-04-16T03:07:10.267Z,2.75
2023-04-16T03:09:36.551Z,2.60
2023-04-16T03:12:02.929Z,3.03
2023-04-16T03:14:29.490Z,3.30
2023-04-16T03:16:55.850Z,2.67
2023-04-16T03:19:22.249Z,3.33
2023-04-16T03:21:48.701Z,2.65
2023-04-16T03:24:15.071Z,3.22
2023-04-16T03:26:41.488Z,2.58
2023-04-16T03:29:08.094Z,3.00
2023-04-16T03:31:34.635Z,3.03
2023-04-16T03:34:01.158Z,3.05
2023-04-16T03:36:27.723Z,2.88
2023-04-16T03:38:54.040Z,3.03
2023-04-16T03:41:20.414Z,3.28
2023-04-16T03:43:46.701Z,2.83
2023-04-16T03:46:13.038Z,2.95
2023-04-16T03:48:39.455Z,3.22
2023-04-16T03:51:05.783Z,2.47
2023-04-16T03:53:32.048Z,3.25
2023-04-16T03:55:58.476Z,3.00
2023-04-16T03:58:24.816Z,2.50
2023-04-16T04:00:53.233Z,3.45
2023-04-16T04:03:19.784Z,3.17
2023-04-16T04:05:46.280Z,2.63
2023-04-16T04:08:12.659Z,3.20
2023-04-16T04:10:39.026Z,2.63
2023-04-16T04:13:06.539Z,2.67
2023-04-16T04:17:59.576Z,2.97
2023-04-16T04:20:26.074Z,3.00
2023-04-16T04:22:52.375Z,2.75
2023-04-16T04:25:18.656Z,3.25
2023-04-16T04:27:44.929Z,3.22
2023-04-16T04:30:11.855Z,3.65
2023-04-16T04:32:38.184Z,3.88
2023-04-16T04:35:04.723Z,3.95
2023-04-16T04:37:30.974Z,3.70
2023-04-16T04:39:57.340Z,3.50
2023-04-16T04:42:24.225Z,3.45
2023-04-16T04:44:50.632Z,3.70
2023-04-16T04:47:16.921Z,3.72
2023-04-16T04:49:43.196Z,3.33
2023-04-16T04:52:09.628Z,2.92
2023-04-16T04:54:35.908Z,3.30
2023-04-16T04:57:02.234Z,2.97
2023-04-16T04:59:28.502Z,3.85
2023-04-16T05:01:54.879Z,2.92
2023-04-16T05:04:21.272Z,2.58
2023-04-16T05:06:47.544Z,3.30
2023-04-16T05:09:13.903Z,3.03
2023-04-16T05:11:42.097Z,3.10
2023-04-16T05:14:08.641Z,2.65
2023-04-16T05:16:36.967Z,3.05
2023-04-16T05:19:03.935Z,3.45
2023-04-16T05:21:30.216Z,2.92
2023-04-16T05:23:56.675Z,3.33
2023-04-16T05:26:22.941Z,3.40
2023-04-16T05:28:49.243Z,3.70
2023-04-16T05:31:15.590Z,3.03
2023-04-16T05:33:42.027Z,3.28
2023-04-16T05:36:08.299Z,3.33
2023-04-16T05:38:34.590Z,2.90
2023-04-16T05:41:00.912Z,3.42
2023-04-16T05:43:27.369Z,3.20
2023-04-16T05:45:53.658Z,3.17
2023-04-16T05:48:20.033Z,3.05
2023-04-16T05:50:46.305Z,3.20
2023-04-16T05:53:12.739Z,3.53
2023-04-16T05:55:39.101Z,3.47
2023-04-16T05:58:05.466Z,3.33
2023-04-16T06:00:35.308Z,3.45
2023-04-16T06:03:02.573Z,3.33
2023-04-16T06:05:30.153Z,3.40
2023-04-16T06:07:56.725Z,3.15
2023-04-16T06:10:23.113Z,4.82
2023-04-16T06:12:49.458Z,3.10
2023-04-16T06:15:15.898Z,3.00
2023-04-16T06:17:42.239Z,3.03
2023-04-16T06:20:09.053Z,3.00
2023-04-16T06:22:35.462Z,2.70
2023-04-16T06:25:01.805Z,2.80
2023-04-16T06:27:28.161Z,2.75
2023-04-16T06:29:54.453Z,2.90
2023-04-16T06:32:20.851Z,2.58
2023-04-16T06:34:47.271Z,2.55
2023-04-16T06:37:13.570Z,2.42
2023-04-16T06:39:39.980Z,2.70
2023-04-16T06:42:06.281Z,2.60
2023-04-16T06:44:32.723Z,2.88
2023-04-16T06:46:59.055Z,2.88
2023-04-16T06:49:25.400Z,3.20
2023-04-16T06:51:51.751Z,2.85
2023-04-16T06:54:18.018Z,3.03
2023-04-16T06:56:44.352Z,3.20
2023-04-16T06:59:10.814Z,3.03
2023-04-16T07:01:37.244Z,2.95
2023-04-16T07:04:03.694Z,2.83
2023-04-16T07:06:30.145Z,2.85
2023-04-16T07:08:56.414Z,2.80
2023-04-16T07:11:22.740Z,3.00
2023-04-16T07:13:49.044Z,3.05
2023-04-16T07:16:15.409Z,3.28
2023-04-16T07:18:41.664Z,2.85
2023-04-16T07:21:07.929Z,3.50
2023-04-16T07:23:34.381Z,3.08
2023-04-16T07:26:00.720Z,2.80
2023-04-16T07:28:27.013Z,2.60
2023-04-16T07:30:53.304Z,2.85
2023-04-16T07:33:19.671Z,3.22
2023-04-16T07:35:46.070Z,3.15
2023-04-16T07:38:12.489Z,3.17
2023-04-16T07:40:38.899Z,3.10
2023-04-16T07:43:05.195Z,2.92
2023-04-16T07:45:31.468Z,2.80
2023-04-16T07:47:57.888Z,2.70
2023-04-16T07:50:25.205Z,2.67
2023-04-16T07:52:51.520Z,2.45
2023-04-16T07:55:17.824Z,3.03
2023-04-16T07:57:44.145Z,3.08
2023-04-16T08:00:10.958Z,2.88
2023-04-16T08:02:37.574Z,3.20
2023-04-16T08:05:04.424Z,3.67
2023-04-16T08:07:31.924Z,2.75
2023-04-16T08:09:59.624Z,2.75
2023-04-16T08:12:25.922Z,2.38
2023-04-16T08:14:52.456Z,2.38
2023-04-16T08:17:18.875Z,2.63
2023-04-16T08:19:45.292Z,2.60
2023-04-16T08:22:14.575Z,2.55
2023-04-16T08:24:41.087Z,2.38
2023-04-16T08:27:17.892Z,2.30
2023-04-16T08:29:45.885Z,2.42
2023-04-16T08:32:12.720Z,2.50
2023-04-16T08:34:39.093Z,2.25
2023-04-16T08:37:05.489Z,2.20
2023-04-16T08:39:31.789Z,2.30
2023-04-16T08:41:58.317Z,2.03
2023-04-16T08:44:31.318Z,1.90
2023-04-16T08:46:58.320Z,2.03
2023-04-16T08:49:26.516Z,1.30
2023-04-16T08:51:56.988Z,1.90
2023-04-16T08:54:43.256Z,1.70
2023-04-16T08:57:10.872Z,2.00
2023-04-16T08:59:38.653Z,1.50
2023-04-16T09:02:06.155Z,1.58
2023-04-16T09:04:33.891Z,1.90
2023-04-16T09:07:04.445Z,1.80
2023-04-16T09:09:33.416Z,1.70
2023-04-16T09:12:01.273Z,1.83
2023-04-16T09:14:27.585Z,2.03
2023-04-16T09:16:54.183Z,1.60
2023-04-16T09:19:20.464Z,1.85
2023-04-16T09:21:47.672Z,1.83
2023-04-16T09:24:14.269Z,1.88
2023-04-16T09:26:41.973Z,1.88
2023-04-16T09:29:09.644Z,2.08
2023-04-16T09:31:36.297Z,1.80
2023-04-16T09:34:07.638Z,1.80
2023-04-16T09:36:34.845Z,1.60
2023-04-16T09:39:02.335Z,2.08
2023-04-16T09:41:31.088Z,2.00
2023-04-16T09:43:59.655Z,2.10
2023-04-16T09:46:35.022Z,2.00
2023-04-16T09:49:15.121Z,1.83
2023-04-16T09:51:42.382Z,2.45
2023-04-16T09:56:42.393Z,1.80
2023-04-16T09:59:16.929Z,2.55
2023-04-16T10:01:43.293Z,2.15
2023-04-16T10:04:09.820Z,1.85
2023-04-16T10:06:36.199Z,1.75
2023-04-16T10:09:07.170Z,1.98
2023-04-16T10:11:34.024Z,1.73
2023-04-16T10:14:00.742Z,1.90
2023-04-16T10:16:27.811Z,2.28
2023-04-16T10:18:54.244Z,2.80
2023-04-16T10:21:21.380Z,2.42
2023-04-16T10:23:47.926Z,2.33
2023-04-16T10:26:14.944Z,3.15
2023-04-16T10:28:41.648Z,2.83
2023-04-16T10:31:09.175Z,2.60
2023-04-16T10:33:39.241Z,2.38
2023-04-16T10:36:13.335Z,2.08
2023-04-16T10:38:41.738Z,2.50
2023-04-16T10:41:08.543Z,2.30
2023-04-16T10:43:44.949Z,2.97
2023-04-16T10:46:20.320Z,3.63
2023-04-16T10:48:50.233Z,3.42
2023-04-16T10:51:25.423Z,3.08
2023-04-16T10:53:53.800Z,2.90
2023-04-16T10:56:27.232Z,3.20
2023-04-16T11:01:34.137Z,3.20
2023-04-16T11:04:25.465Z,4.18
2023-04-16T11:07:12.863Z,5.18
2023-04-16T11:09:51.186Z,3.45
2023-04-16T11:12:21.423Z,3.75
2023-04-16T11:14:53.087Z,3.40
2023-04-16T11:17:20.627Z,3.78
2023-04-16T11:19:47.393Z,4.07
2023-04-16T11:22:16.074Z,4.40
2023-04-16T11:24:43.697Z,4.57
2023-04-16T11:27:12.486Z,3.83
2023-04-16T11:29:38.901Z,4.75
2023-04-16T11:32:05.503Z,4.35
2023-04-16T11:34:32.304Z,3.63
2023-04-16T11:36:58.648Z,10.63
2023-04-16T11:39:24.939Z,12.45
2023-04-16T11:41:51.866Z,7.78
2023-04-16T11:44:18.205Z,3.10
2023-04-16T11:46:44.564Z,3.33
2023-04-16T11:49:11.146Z,3.25
2023-04-16T11:51:44.704Z,4.80
2023-04-16T11:54:21.718Z,2.58
2023-04-16T11:56:49.946Z,3.60
2023-04-16T11:59:23.510Z,4.00
2023-04-16T12:01:51.151Z,3.15
2023-04-16T12:04:20.195Z,1.70
2023-04-16T12:07:05.914Z,1.95
2023-04-16T12:09:33.001Z,2.00
2023-04-16T12:11:59.408Z,2.17
2023-04-16T12:14:25.701Z,2.13
2023-04-16T12:16:52.134Z,1.67
2023-04-16T12:19:18.658Z,2.90
2023-04-16T12:21:50.137Z,2.47
2023-04-16T12:24:18.631Z,2.75
2023-04-16T12:26:47.336Z,2.38
2023-04-16T12:29:24.506Z,2.55
2023-04-16T12:31:52.158Z,2.45
2023-04-16T12:34:19.811Z,3.60
2023-04-16T12:36:47.798Z,3.17
2023-04-16T12:39:15.573Z,2.97
2023-04-16T12:41:43.508Z,2.10
2023-04-16T12:44:16.798Z,2.30
2023-04-16T12:46:44.600Z,2.17
2023-04-16T12:49:11.605Z,1.90
2023-04-16T12:51:38.799Z,2.00
2023-04-16T12:54:06.626Z,1.80
2023-04-16T12:56:33.888Z,1.80
2023-04-16T12:59:00.176Z,2.70
2023-04-16T13:01:26.549Z,2.60
2023-04-16T13:03:53.029Z,2.60
2023-04-16T13:06:19.944Z,2.20
2023-04-16T13:08:46.510Z,2.28
2023-04-16T13:11:13.359Z,1.95
2023-04-16T13:13:39.853Z,1.60
2023-04-16T13:16:06.195Z,1.20
2023-04-16T13:18:32.992Z,0.90
2023-04-16T13:20:59.462Z,1.20
2023-04-16T13:23:25.883Z,0.80
2023-04-16T13:25:52.216Z,0.80
2023-04-16T13:28:18.575Z,2.08
2023-04-16T13:30:45.677Z,0.80
2023-04-16T13:33:12.109Z,1.02
2023-04-16T13:35:38.798Z,1.50
2023-04-16T13:38:05.472Z,1.40
2023-04-16T13:40:31.769Z,1.15
2023-04-16T13:42:58.057Z,1.25
2023-04-16T13:45:24.560Z,1.40
2023-04-16T13:47:50.989Z,1.40
2023-04-16T13:50:17.456Z,1.50
2023-04-16T13:52:43.760Z,1.30
2023-04-16T13:55:10.123Z,1.30
2023-04-16T13:57:36.677Z,1.08
2023-04-16T14:00:03.190Z,1.20
2023-04-16T14:02:29.642Z,1.88
2023-04-16T14:04:56.081Z,1.10
2023-04-16T14:07:22.367Z,1.10
2023-04-16T14:09:48.651Z,1.15
2023-04-16T14:12:15.101Z,1.02
2023-04-16T14:14:41.534Z,0.93
2023-04-16T14:17:07.793Z,1.10
2023-04-16T14:19:34.176Z,1.15
2023-04-16T14:22:00.461Z,1.00
2023-04-16T14:24:26.744Z,1.20
2023-04-16T14:26:53.160Z,1.23
2023-04-16T14:29:19.475Z,1.08
2023-04-16T14:31:45.918Z,1.48
2023-04-16T14:34:12.330Z,1.38
2023-04-16T14:36:38.769Z,1.23
2023-04-16T14:39:05.059Z,1.42
2023-04-16T14:41:31.452Z,1.30
2023-04-16T14:43:58.855Z,1.40
2023-04-16T14:46:25.339Z,1.40
2023-04-16T14:48:51.738Z,1.15
2023-04-16T14:51:18.155Z,1.30
2023-04-16T14:53:44.453Z,1.80
2023-04-16T14:56:11.113Z,2.30
2023-04-16T14:58:39.295Z,1.95
2023-04-16T15:01:05.942Z,2.53
2023-04-16T15:03:32.645Z,2.03
2023-04-16T15:05:59.401Z,2.13
2023-04-16T15:08:25.679Z,2.25
2023-04-16T15:10:51.965Z,2.30
2023-04-16T15:13:18.533Z,1.90
2023-04-16T15:15:45.150Z,2.50
2023-04-16T15:18:11.498Z,5.10
2023-04-16T15:20:37.892Z,1.90
2023-04-16T15:23:04.208Z,1.63
2023-04-16T15:25:30.528Z,1.80
2023-04-16T15:27:56.910Z,2.10
2023-04-16T15:30:23.197Z,1.63
2023-04-16T15:32:49.581Z,1.60
2023-04-16T15:35:15.996Z,1.90
2023-04-16T15:37:42.251Z,11.40
2023-04-16T15:40:08.643Z,1.70
2023-04-16T15:42:35.107Z,2.10
2023-04-16T15:45:01.712Z,2.05
2023-04-16T15:47:28.610Z,1.63
2023-04-16T15:49:54.898Z,1.50
2023-04-16T15:52:21.224Z,1.50
2023-04-16T15:54:47.618Z,1.50
2023-04-16T15:57:13.900Z,1.23
2023-04-16T15:59:40.208Z,1.58
2023-04-16T16:02:06.659Z,1.95
2023-04-16T16:04:33.122Z,1.50
2023-04-16T16:06:59.553Z,1.55
2023-04-16T16:09:26.058Z,1.30
2023-04-16T16:11:53.115Z,1.80
2023-04-16T16:14:19.925Z,1.70
2023-04-16T16:16:46.412Z,1.80
2023-04-16T16:19:12.706Z,1.20
2023-04-16T16:21:38.979Z,1.60
2023-04-16T16:24:05.532Z,1.80
2023-04-16T16:26:31.822Z,1.95
2023-04-16T16:28:58.135Z,2.10
2023-04-16T16:31:24.556Z,2.67
2023-04-16T16:33:51.020Z,1.95
2023-04-16T16:36:17.345Z,2.33
2023-04-16T16:38:43.724Z,2.70
2023-04-16T16:41:10.113Z,3.33
2023-04-16T16:43:36.390Z,1.67
2023-04-16T16:46:02.879Z,1.65
2023-04-16T16:48:29.331Z,3.03
2023-04-16T16:50:55.746Z,3.03
2023-04-16T16:53:22.110Z,2.33
2023-04-16T16:55:48.395Z,3.63
2023-04-16T16:58:14.667Z,4.40
2023-04-16T17:00:41.030Z,1.70
2023-04-16T17:03:07.410Z,1.80
2023-04-16T17:05:34.979Z,2.22
2023-04-16T17:08:01.467Z,1.77
2023-04-16T17:10:27.762Z,3.40
2023-04-16T17:12:54.244Z,3.33
2023-04-16T17:15:21.887Z,2.88
2023-04-16T17:17:48.552Z,2.00
2023-04-16T17:20:15.065Z,2.65
2023-04-16T17:22:41.894Z,2.45
2023-04-16T17:25:08.849Z,1.77
2023-04-16T17:27:35.236Z,2.45
2023-04-16T17:30:02.976Z,1.98
2023-04-16T17:32:29.552Z,2.40
2023-04-16T17:34:56.321Z,1.95
2023-04-16T17:37:23.370Z,1.70
2023-04-16T17:39:50.072Z,2.72
2023-04-16T17:42:16.591Z,2.17
2023-04-16T17:44:45.371Z,2.60
2023-04-16T17:47:11.760Z,2.63
2023-04-16T17:49:38.066Z,2.60
2023-04-16T17:52:04.436Z,2.20
2023-04-16T17:54:30.720Z,1.77
2023-04-16T17:56:57.100Z,1.60
2023-04-16T17:59:23.433Z,1.70
2023-04-16T18:01:49.808Z,2.72
2023-04-16T18:04:16.650Z,3.17
2023-04-16T18:06:43.367Z,4.95
2023-04-16T18:09:09.742Z,4.13
2023-04-16T18:11:36.100Z,3.97
2023-04-16T18:14:02.375Z,3.10
2023-04-16T18:16:28.836Z,6.47
2023-04-16T18:18:55.236Z,4.10
2023-04-16T18:21:21.522Z,5.75
2023-04-16T18:23:47.910Z,5.65
2023-04-16T18:26:17.828Z,3.13
2023-04-16T18:28:46.651Z,3.75
2023-04-16T18:31:13.012Z,3.20
2023-04-16T18:33:55.477Z,4.18
2023-04-16T18:36:23.653Z,2.53
2023-04-16T18:38:59.989Z,2.85
2023-04-16T18:41:27.178Z,3.95
2023-04-16T18:43:53.565Z,5.22
2023-04-16T18:46:19.885Z,6.90
2023-04-16T18:48:46.357Z,3.08
2023-04-16T18:51:14.191Z,2.88
2023-04-16T18:53:41.877Z,2.72
2023-04-16T18:56:08.433Z,2.70
2023-04-16T18:58:34.752Z,3.08
2023-04-16T19:01:01.212Z,3.10
2023-04-16T19:03:28.612Z,3.67
2023-04-16T19:08:21.594Z,3.60
2023-04-16T19:10:48.850Z,3.35
2023-04-16T19:13:15.702Z,2.83
2023-04-16T19:15:42.113Z,3.40
2023-04-16T19:18:08.439Z,2.92
2023-04-16T19:20:35.842Z,3.70
2023-04-16T19:23:02.639Z,3.78
2023-04-16T19:25:29.126Z,3.28
2023-04-16T19:27:55.463Z,5.00
2023-04-16T19:30:21.934Z,4.70
2023-04-16T19:32:48.441Z,3.90
2023-04-16T19:35:14.816Z,3.35
2023-04-16T19:37:41.162Z,4.10
2023-04-16T19:40:08.132Z,3.00
2023-04-16T19:42:34.426Z,3.13
2023-04-16T19:45:00.763Z,3.50
2023-04-16T19:47:27.395Z,2.58
2023-04-16T19:49:53.707Z,2.92
2023-04-16T19:52:20.064Z,3.20
2023-04-16T19:54:46.480Z,3.45
2023-04-16T19:57:12.749Z,3.88
2023-04-16T19:59:39.143Z,3.22
2023-04-16T20:02:05.525Z,3.10
2023-04-16T20:04:31.863Z,3.10
2023-04-16T20:06:58.410Z,2.50
2023-04-16T20:09:24.769Z,2.38
2023-04-16T20:11:51.234Z,2.40
2023-04-16T20:14:17.615Z,2.75
2023-04-16T20:16:44.076Z,2.97
2023-04-16T20:19:10.634Z,2.40
2023-04-16T20:21:37.356Z,2.40
2023-04-16T20:24:03.707Z,2.80
2023-04-16T20:26:33.126Z,3.47
2023-04-16T20:29:02.758Z,3.15
2023-04-16T20:31:29.245Z,3.08
2023-04-16T20:33:55.661Z,2.80
2023-04-16T20:36:21.948Z,2.88
2023-04-16T20:38:48.234Z,2.80
2023-04-16T20:41:14.653Z,2.97
2023-04-16T20:43:41.114Z,2.63
2023-04-16T20:46:08.257Z,2.30
2023-04-16T20:48:35.011Z,2.60
2023-04-16T20:51:03.082Z,2.58
2023-04-16T20:53:30.949Z,2.38
2023-04-16T20:55:57.686Z,2.42
2023-04-16T20:58:24.028Z,2.90
2023-04-16T21:00:51.327Z,2.83
2023-04-16T21:03:18.863Z,2.90
2023-04-16T21:05:53.492Z,2.90
2023-04-16T21:08:20.679Z,3.22
2023-04-16T21:10:47.475Z,3.15
2023-04-16T21:13:14.208Z,3.38
2023-04-16T21:15:41.842Z,3.00
2023-04-16T21:18:09.114Z,3.10
2023-04-16T21:20:35.874Z,2.38
2023-04-16T21:23:03.748Z,2.78
2023-04-16T21:25:30.437Z,3.35
2023-04-16T21:27:57.149Z,2.90
2023-04-16T21:30:23.695Z,2.80
2023-04-16T21:32:50.193Z,2.83
2023-04-16T21:35:16.543Z,2.97
2023-04-16T21:37:42.825Z,4.78
2023-04-16T21:40:09.530Z,3.63
2023-04-16T21:42:36.047Z,3.33
2023-04-16T21:45:02.475Z,3.40
2023-04-16T21:47:28.885Z,3.75
2023-04-16T21:49:55.183Z,3.33
2023-04-16T21:52:21.636Z,3.50
2023-04-16T21:54:48.070Z,3.45
2023-04-16T21:57:14.337Z,4.30
2023-04-16T21:59:40.712Z,4.57
2023-04-16T22:02:07.113Z,4.32
2023-04-16T22:04:33.392Z,4.55
2023-04-16T22:06:59.776Z,4.15
2023-04-16T22:09:26.185Z,3.65
2023-04-16T22:11:52.478Z,3.67
2023-04-16T22:14:18.747Z,3.85
2023-04-16T22:16:45.160Z,3.33
2023-04-16T22:19:11.837Z,3.33
2023-04-16T22:21:38.452Z,3.70
2023-04-16T22:24:05.075Z,3.58
2023-04-16T22:26:31.329Z,4.00
2023-04-16T22:28:57.610Z,3.67
2023-04-16T22:31:23.886Z,4.07
2023-04-16T22:33:50.152Z,3.58
2023-04-16T22:36:16.547Z,3.20
2023-04-16T22:38:42.880Z,3.90
2023-04-16T22:41:09.274Z,3.45
2023-04-16T22:43:35.556Z,3.42
2023-04-16T22:46:03.119Z,3.47
2023-04-16T22:48:29.619Z,3.25
2023-04-16T22:50:55.903Z,3.70
2023-04-16T22:53:22.593Z,4.15
2023-04-16T22:55:48.971Z,3.33
2023-04-16T22:58:15.239Z,3.92
2023-04-16T23:00:41.614Z,3.72
2023-04-16T23:03:08.095Z,3.95
2023-04-16T23:05:34.454Z,3.53
2023-04-16T23:08:00.896Z,3.78
2023-04-16T23:10:27.616Z,4.00
2023-04-16T23:12:54.271Z,4.00
2023-04-16T23:15:20.664Z,3.72
2023-04-16T23:17:47.741Z,3.80
2023-04-16T23:20:14.136Z,4.00
2023-04-16T23:22:40.472Z,3.50
2023-04-16T23:25:07.864Z,3.72
2023-04-16T23:27:34.769Z,3.40
2023-04-16T23:30:01.221Z,3.42
2023-04-16T23:32:27.518Z,3.90
2023-04-16T23:34:53.935Z,3.85
2023-04-16T23:37:20.357Z,4.22
2023-04-16T23:39:46.731Z,4.07
2023-04-16T23:42:13.060Z,4.60
2023-04-16T23:44:39.492Z,3.55
2023-04-16T23:47:05.851Z,3.90
2023-04-16T23:49:32.205Z,4.10
2023-04-16T23:51:58.535Z,3.78
2023-04-16T23:54:24.927Z,3.92
2023-04-16T23:56:51.194Z,4.18
2023-04-16T23:59:17.487Z,3.75
